Time;durP1;ratioP1;P1;durP2;ratioP2;P2;SDS_P1;SDS_P2;PMS_P1;PMS_P2;Temp;Humidity;BMP_temperature;BMP_pressure;BME280_temperature;BME280_humidity;BME280_pressure;Samples;Min_cycle;Max_cycle;Signal;HPM_P1;HPM_P2
2021/05/12 00:02:16;;;;;;;8.63;5.60;;;;;;;13.87;69.23;100600.84;6260430;28;20232;-61
2021/05/12 00:05:36;;;;;;;5.60;5.10;;;;;;;13.69;69.97;100598.72;6260904;28;20235;-60
2021/05/12 00:08:57;;;;;;;5.83;5.30;;;;;;;13.95;68.70;100608.50;6295302;28;20219;-61
2021/05/12 00:12:18;;;;;;;9.10;5.83;;;;;;;13.85;69.24;100604.44;6284201;28;20240;-61
2021/05/12 00:15:39;;;;;;;6.10;5.50;;;;;;;13.84;69.16;100605.31;6277335;28;20500;-61
2021/05/12 00:19:00;;;;;;;6.03;5.53;;;;;;;13.93;69.22;100618.16;6281213;28;20786;-62
2021/05/12 00:22:32;;;;;;;7.43;5.70;;;;;;;13.79;69.39;100621.13;6279665;28;20230;-61
2021/05/12 00:25:53;;;;;;;10.03;6.53;;;;;;;13.72;69.65;100620.41;6289160;28;20481;-62
2021/05/12 00:29:17;;;;;;;8.53;7.60;;;;;;;13.76;69.60;100615.97;6293696;28;20231;-61
2021/05/12 00:32:41;;;;;;;7.50;6.80;;;;;;;13.84;69.36;100621.91;6274083;28;20670;-61
2021/05/12 00:36:01;;;;;;;7.00;6.30;;;;;;;13.86;69.19;100622.72;6263548;28;20554;-60
2021/05/12 00:39:21;;;;;;;7.47;6.70;;;;;;;13.64;69.83;100632.00;6276372;28;20236;-61
2021/05/12 00:42:43;;;;;;;7.17;6.47;;;;;;;13.85;69.62;100628.84;6288938;28;20222;-59
2021/05/12 00:46:03;;;;;;;7.83;6.60;;;;;;;13.78;69.44;100629.88;6294656;28;20264;-62
2021/05/12 00:49:24;;;;;;;7.57;6.73;;;;;;;13.68;69.68;100617.94;6281384;28;20259;-61
2021/05/12 00:52:45;;;;;;;6.90;5.63;;;;;;;13.59;69.52;100609.41;6255917;28;20884;-61
2021/05/12 00:56:05;;;;;;;7.50;6.73;;;;;;;13.69;68.86;100609.19;6263339;28;20248;-62
2021/05/12 00:59:33;;;;;;;6.63;6.00;;;;;;;13.76;69.28;100621.19;6257374;28;20239;-61
2021/05/12 01:02:53;;;;;;;8.40;7.60;;;;;;;13.66;69.50;100619.72;6259221;28;20251;-60
2021/05/12 01:06:22;;;;;;;7.67;6.97;;;;;;;13.43;70.11;100622.91;6260831;28;20220;-61
2021/05/12 01:09:43;;;;;;;8.23;6.50;;;;;;;13.39;70.35;100629.97;6264901;28;21840;-61
2021/05/12 01:13:04;;;;;;;8.40;5.93;;;;;;;13.64;69.58;100626.75;6264912;28;20224;-61
2021/05/12 01:16:25;;;;;;;6.80;5.73;;;;;;;13.46;69.68;100623.69;6246485;28;20224;-61
2021/05/12 01:19:46;;;;;;;6.00;5.50;;;;;;;13.59;69.17;100614.66;6265385;28;20658;-61
2021/05/12 01:23:07;;;;;;;6.87;6.13;;;;;;;13.44;69.83;100628.09;6252933;28;20227;-62
2021/05/12 01:26:28;;;;;;;8.30;6.73;;;;;;;13.45;70.42;100624.56;6264939;28;20219;-60
2021/05/12 01:29:49;;;;;;;6.23;5.17;;;;;;;13.52;69.36;100639.25;6262179;28;20231;-61
2021/05/12 01:33:09;;;;;;;6.00;5.33;;;;;;;13.62;68.68;100629.41;6262491;28;20223;-60
2021/05/12 01:36:31;;;;;;;5.20;4.70;;;;;;;13.81;68.30;100645.50;6280589;28;20616;-61
2021/05/12 01:39:52;;;;;;;5.20;4.70;;;;;;;14.10;67.31;100651.75;6282677;28;20737;-61
2021/05/12 01:43:13;;;;;;;6.23;4.83;;;;;;;13.69;68.20;100648.44;6284923;28;20254;-60
2021/05/12 01:46:34;;;;;;;5.13;4.63;;;;;;;13.73;68.61;100647.47;6277640;28;20219;-61
2021/05/12 01:49:58;;;;;;;4.83;4.43;;;;;;;13.72;68.16;100645.75;6275419;28;20314;-61
2021/05/12 01:53:19;;;;;;;4.87;4.07;;;;;;;13.61;68.54;100639.91;6264880;28;20235;-61
2021/05/12 01:56:41;;;;;;;6.00;4.10;;;;;;;13.69;68.05;100640.59;6262302;28;20261;-61
2021/05/12 02:00:20;;;;;;;6.10;4.43;;;;;;;13.65;68.41;100644.16;6247252;28;20330;-61
2021/05/12 02:03:40;;;;;;;4.90;4.40;;;;;;;13.52;69.11;100654.94;6252144;28;20232;-61
2021/05/12 02:07:00;;;;;;;9.67;5.43;;;;;;;13.46;69.28;100639.38;6261457;28;20428;-61
2021/05/12 02:10:21;;;;;;;5.40;4.27;;;;;;;13.62;68.61;100631.16;6261224;28;20366;-62
2021/05/12 02:13:43;;;;;;;5.60;5.10;;;;;;;13.57;68.38;100629.53;6259836;28;20733;-60
2021/05/12 02:17:03;;;;;;;5.80;4.40;;;;;;;13.54;68.85;100637.44;6261304;28;20374;-60
2021/05/12 02:20:26;;;;;;;7.33;4.63;;;;;;;13.74;68.33;100636.94;6263023;28;20228;-60
2021/05/12 02:23:47;;;;;;;6.97;5.07;;;;;;;13.71;68.14;100638.81;6254168;28;20618;-61
2021/05/12 02:27:07;;;;;;;5.47;4.97;;;;;;;13.54;68.73;100626.97;6257650;28;20235;-61
2021/05/12 02:30:30;;;;;;;6.10;4.30;;;;;;;13.63;68.56;100625.03;6262662;28;20272;-62
2021/05/12 02:33:50;;;;;;;6.43;5.80;;;;;;;13.76;68.01;100624.72;6258379;28;20227;-61
2021/05/12 02:37:11;;;;;;;7.07;5.93;;;;;;;13.47;69.03;100625.41;6266729;28;20232;-61
2021/05/12 02:40:31;;;;;;;7.73;6.97;;;;;;;13.39;69.27;100629.97;6260397;28;20251;-60
2021/05/12 02:43:52;;;;;;;7.87;6.50;;;;;;;13.34;69.92;100629.22;6265977;28;20593;-61
2021/05/12 02:47:14;;;;;;;9.43;8.63;;;;;;;13.26;69.39;100625.88;6259154;28;21043;-60
2021/05/12 02:50:37;;;;;;;10.47;9.60;;;;;;;13.48;69.08;100627.13;6256111;28;20251;-61
2021/05/12 02:53:58;;;;;;;11.23;9.43;;;;;;;13.28;69.61;100618.84;6243646;28;20220;-60
2021/05/12 02:57:19;;;;;;;9.60;8.67;;;;;;;13.62;68.59;100605.00;6254832;28;20228;-61
2021/05/12 03:00:42;;;;;;;10.80;9.90;;;;;;;13.46;69.44;100609.75;6259389;28;20220;-61
2021/05/12 03:04:04;;;;;;;11.20;10.10;;;;;;;13.55;69.05;100612.13;6260065;28;20233;-61
2021/05/12 03:07:24;;;;;;;11.37;9.93;;;;;;;13.37;69.51;100616.06;6260300;28;20224;-61
2021/05/12 03:10:44;;;;;;;10.93;9.83;;;;;;;13.66;68.50;100607.50;6255407;28;20524;-62
2021/05/12 03:14:07;;;;;;;13.07;10.63;;;;;;;13.48;69.17;100610.59;6259635;28;20228;-61
2021/05/12 03:17:28;;;;;;;10.83;9.83;;;;;;;13.28;70.14;100613.63;6265138;28;20390;-61
2021/05/12 03:20:50;;;;;;;14.03;12.07;;;;;;;13.41;69.72;100620.31;6252045;28;20232;-61
2021/05/12 03:24:11;;;;;;;14.70;12.03;;;;;;;13.46;69.61;100625.47;6261685;28;20510;-61
2021/05/12 03:27:31;;;;;;;14.97;12.27;;;;;;;13.14;70.41;100630.50;6267945;28;20657;-60
2021/05/12 03:30:52;;;;;;;13.43;12.10;;;;;;;13.16;70.91;100633.94;6253934;28;20235;-61
2021/05/12 03:34:13;;;;;;;12.83;11.47;;;;;;;13.41;69.87;100646.47;6260881;28;20255;-62
2021/05/12 03:37:34;;;;;;;14.27;11.87;;;;;;;13.59;68.82;100632.97;6264214;28;20224;-61
2021/05/12 03:40:55;;;;;;;14.83;13.33;;;;;;;13.61;69.16;100621.59;6279804;28;20539;-61
2021/05/12 03:44:15;;;;;;;15.83;12.17;;;;;;;13.48;69.78;100627.13;6287994;28;20235;-59
2021/05/12 03:47:36;;;;;;;13.73;12.33;;;;;;;13.20;71.07;100632.09;6291885;28;20235;-60
2021/05/12 03:50:56;;;;;;;16.90;15.30;;;;;;;13.45;70.10;100640.28;6290310;28;20223;-61
2021/05/12 03:54:21;;;;;;;15.30;13.50;;;;;;;13.32;70.69;100638.88;6302458;28;20334;-61
2021/05/12 03:57:42;;;;;;;17.40;15.00;;;;;;;13.48;70.21;100636.75;6294682;28;20611;-61
2021/05/12 04:01:03;;;;;;;15.83;14.33;;;;;;;13.43;70.25;100636.84;6260608;28;20523;-62
2021/05/12 04:04:23;;;;;;;16.67;14.97;;;;;;;13.46;70.17;100647.22;6279372;28;20235;-61
2021/05/12 04:07:44;;;;;;;17.57;15.87;;;;;;;13.54;69.73;100650.53;6262706;28;20235;-61
2021/05/12 04:11:06;;;;;;;16.27;14.57;;;;;;;13.40;69.71;100650.00;6263348;28;20251;-62
2021/05/12 04:14:27;;;;;;;14.37;12.53;;;;;;;13.48;69.90;100663.75;6257893;28;20594;-62
2021/05/12 04:17:48;;;;;;;17.33;14.13;;;;;;;13.52;69.78;100675.88;6261545;28;20240;-61
2021/05/12 04:21:08;;;;;;;14.00;12.47;;;;;;;13.87;68.50;100676.75;6262917;28;20250;-62
2021/05/12 04:24:29;;;;;;;15.87;14.00;;;;;;;13.55;69.90;100674.91;6263791;28;20232;-61
2021/05/12 04:27:51;;;;;;;17.43;15.60;;;;;;;13.30;70.94;100679.84;6252238;28;20586;-62
2021/05/12 04:31:11;;;;;;;16.00;14.27;;;;;;;13.34;70.95;100681.53;6266295;28;20285;-62
2021/05/12 04:34:32;;;;;;;15.23;13.53;;;;;;;13.58;69.93;100690.56;6262260;28;20228;-62
2021/05/12 04:37:53;;;;;;;14.50;12.93;;;;;;;13.23;70.90;100688.72;6263396;28;20321;-61
2021/05/12 04:41:13;;;;;;;14.67;12.97;;;;;;;13.46;70.30;100694.31;6257081;28;20227;-59
2021/05/12 04:44:35;;;;;;;14.77;13.33;;;;;;;13.54;70.40;100689.75;6281220;28;20231;-61
2021/05/12 04:47:55;;;;;;;13.70;11.67;;;;;;;13.84;69.23;100692.56;6287226;28;20232;-62
2021/05/12 04:51:16;;;;;;;14.20;12.73;;;;;;;13.85;69.21;100693.41;6279355;28;20260;-63
2021/05/12 04:54:37;;;;;;;15.80;12.80;;;;;;;13.66;69.73;100690.38;6273708;28;20226;-61
2021/05/12 04:57:58;;;;;;;15.80;13.90;;;;;;;13.94;69.09;100683.56;6273041;28;20215;-61
2021/05/12 05:01:20;;;;;;;14.00;12.50;;;;;;;13.92;69.52;100684.50;6245568;28;20346;-60
2021/05/12 05:04:41;;;;;;;13.23;10.77;;;;;;;13.52;70.45;100682.84;6258662;28;20227;-61
2021/05/12 05:08:01;;;;;;;14.13;12.63;;;;;;;13.13;72.68;100688.91;6254861;28;20590;-62
2021/05/12 05:11:22;;;;;;;15.83;14.20;;;;;;;13.30;72.01;100682.47;6277834;28;20235;-61
2021/05/12 05:14:42;;;;;;;15.93;14.00;;;;;;;13.40;71.34;100689.22;6263783;28;20234;-61
2021/05/12 05:18:04;;;;;;;15.87;14.33;;;;;;;13.09;72.74;100679.41;6273401;28;20238;-60
2021/05/12 05:21:25;;;;;;;14.47;12.97;;;;;;;13.34;71.46;100676.31;6289136;28;20545;-61
2021/05/12 05:24:47;;;;;;;13.90;12.50;;;;;;;13.49;70.89;100678.56;6285489;28;20652;-61
2021/05/12 05:28:07;;;;;;;12.57;10.97;;;;;;;13.70;70.40;100673.69;6281356;28;20231;-61
2021/05/12 05:31:27;;;;;;;13.80;12.27;;;;;;;13.22;72.51;100679.13;6277073;28;20620;-61
2021/05/12 05:35:08;;;;;;;12.83;11.53;;;;;;;13.47;71.29;100680.34;6265279;28;20233;-61
2021/05/12 05:38:47;;;;;;;13.07;11.80;;;;;;;13.55;71.09;100688.00;6243296;28;20243;-55
2021/05/12 05:42:26;;;;;;;11.50;10.30;;;;;;;13.32;71.47;100692.03;6258228;28;20224;-52
2021/05/12 05:46:19;;;;;;;10.87;9.20;;;;;;;13.32;71.78;100699.88;6254783;28;20227;-53
2021/05/12 05:49:57;;;;;;;11.43;9.73;;;;;;;13.50;70.91;100708.19;6257082;28;20223;-50
2021/05/12 05:53:37;;;;;;;17.40;14.20;;;;;;;13.72;70.34;100716.41;6259271;28;20243;-47
2021/05/12 05:57:16;;;;;;;12.00;10.80;;;;;;;14.02;69.29;100716.56;6228632;28;20228;-48
2021/05/12 06:00:55;;;;;;;11.73;10.57;;;;;;;13.91;68.71;100714.19;6247648;28;20228;-55
2021/05/12 06:04:16;;;;;;;12.63;9.40;;;;;;;13.87;69.03;100721.25;6263021;28;20228;-53
2021/05/12 06:07:55;;;;;;;12.47;9.63;;;;;;;13.78;69.16;100731.94;6258332;28;20232;-48
2021/05/12 06:11:36;;;;;;;9.97;8.97;;;;;;;13.79;69.48;100731.91;6258564;28;20239;-50
2021/05/12 06:15:19;;;;;;;10.60;9.50;;;;;;;13.69;69.63;100740.03;6287724;28;20305;-52
2021/05/12 06:18:59;;;;;;;15.70;12.67;;;;;;;13.65;70.38;100739.25;6260880;28;20235;-48
2021/05/12 06:22:38;;;;;;;11.23;10.07;;;;;;;13.56;71.06;100750.75;6255467;28;20227;-49
2021/05/12 06:26:18;;;;;;;9.90;8.93;;;;;;;13.73;70.14;100757.38;6257250;28;20227;-52
2021/05/12 06:29:58;;;;;;;13.20;8.90;;;;;;;13.22;70.96;100765.44;6245362;28;20239;-49
2021/05/12 06:33:40;;;;;;;10.73;9.53;;;;;;;13.27;71.97;100772.28;6281047;28;20588;-52
2021/05/12 06:37:18;;;;;;;13.43;9.70;;;;;;;13.52;71.28;100780.50;6262067;28;20261;-51
2021/05/12 06:41:14;;;;;;;11.50;10.43;;;;;;;13.93;69.88;100781.31;6252525;28;20522;-45
2021/05/12 06:44:35;;;;;;;11.40;8.47;;;;;;;13.97;69.58;100782.97;6257563;28;20227;-54
2021/05/12 06:47:56;;;;;;;10.17;9.03;;;;;;;13.91;69.96;100777.88;6248535;28;20231;-54
2021/05/12 06:51:17;;;;;;;8.97;8.17;;;;;;;13.92;69.42;100782.25;6254127;28;20232;-48
2021/05/12 06:54:37;;;;;;;9.90;7.87;;;;;;;13.73;70.11;100781.78;6252673;28;20228;-50
2021/05/12 06:57:58;;;;;;;12.17;8.47;;;;;;;14.03;69.66;100786.34;6277286;28;20235;-52
2021/05/12 07:01:20;;;;;;;10.93;8.20;;;;;;;13.88;69.89;100788.44;6268569;28;20227;-48
2021/05/12 07:04:41;;;;;;;12.07;8.33;;;;;;;14.12;69.47;100789.59;6255071;28;20232;-50
2021/05/12 07:08:01;;;;;;;9.23;8.33;;;;;;;14.20;68.74;100794.66;6258456;28;20235;-51
2021/05/12 07:11:23;;;;;;;10.07;8.60;;;;;;;14.17;69.27;100794.72;6257868;28;20232;-52
2021/05/12 07:14:44;;;;;;;8.40;7.50;;;;;;;14.04;70.24;100793.31;6256448;28;20597;-49
2021/05/12 07:18:05;;;;;;;9.70;8.30;;;;;;;14.22;69.64;100803.34;6261037;28;22743;-50
2021/05/12 07:21:26;;;;;;;10.33;8.90;;;;;;;14.32;68.67;100803.97;6260093;28;20219;-50
2021/05/12 07:24:47;;;;;;;11.43;8.83;;;;;;;14.29;69.14;100802.31;6248829;28;20259;-51
2021/05/12 07:28:07;;;;;;;10.57;9.67;;;;;;;14.05;70.12;100800.25;6261370;28;20220;-51
2021/05/12 07:31:28;;;;;;;14.70;9.17;;;;;;;14.02;69.49;100795.13;6260063;28;20220;-48
2021/05/12 07:34:51;;;;;;;10.13;9.13;;;;;;;14.34;69.12;100791.69;6257298;28;20228;-50
2021/05/12 07:38:13;;;;;;;14.57;10.10;;;;;;;14.11;70.02;100805.34;6260871;28;20232;-53
2021/05/12 07:41:34;;;;;;;11.87;8.30;;;;;;;14.41;68.95;100808.13;6260934;28;20240;-51
2021/05/12 07:44:55;;;;;;;9.23;8.37;;;;;;;14.70;67.71;100808.28;6264151;28;20628;-47
2021/05/12 07:48:16;;;;;;;10.13;9.03;;;;;;;14.92;67.12;100816.41;6261296;28;20251;-47
2021/05/12 07:51:36;;;;;;;11.60;8.43;;;;;;;15.10;66.51;100832.53;6254437;28;20225;-48
2021/05/12 07:54:57;;;;;;;10.27;8.97;;;;;;;15.05;66.24;100826.59;6286457;28;20274;-47
2021/05/12 07:58:18;;;;;;;14.97;9.83;;;;;;;15.43;65.77;100835.13;6262524;28;20232;-51
2021/05/12 08:01:41;;;;;;;11.50;8.50;;;;;;;15.34;65.89;100825.78;6259141;28;20552;-46
2021/05/12 08:05:02;;;;;;;10.70;9.23;;;;;;;14.87;67.23;100834.06;6258610;28;20499;-45
2021/05/12 08:08:22;;;;;;;14.83;9.97;;;;;;;14.73;67.34;100836.16;6258148;28;20609;-50
2021/05/12 08:11:44;;;;;;;20.80;15.53;;;;;;;14.29;68.35;100838.97;6260758;28;20653;-47
2021/05/12 08:15:06;;;;;;;19.93;17.50;;;;;;;14.49;68.66;100842.88;6258593;28;20237;-47
2021/05/12 08:18:26;;;;;;;20.13;18.00;;;;;;;14.66;68.14;100843.34;6273301;28;20250;-50
2021/05/12 08:21:46;;;;;;;24.13;20.43;;;;;;;14.61;68.79;100844.34;6273134;28;20310;-51
2021/05/12 08:25:08;;;;;;;30.73;27.53;;;;;;;14.70;67.98;100842.34;6287712;28;20259;-49
2021/05/12 08:28:29;;;;;;;26.73;24.43;;;;;;;15.10;67.02;100859.66;6271714;28;20227;-50
2021/05/12 08:31:50;;;;;;;27.30;23.67;;;;;;;14.95;68.02;100873.19;6251985;28;20307;-48
2021/05/12 08:35:11;;;;;;;29.43;26.10;;;;;;;14.88;68.47;100871.59;6259848;28;20232;-51
2021/05/12 08:38:32;;;;;;;31.17;27.57;;;;;;;15.13;67.73;100863.94;6278652;28;20239;-50
2021/05/12 08:41:52;;;;;;;24.27;21.67;;;;;;;15.16;66.83;100866.50;6269619;28;20235;-52
2021/05/12 08:45:15;;;;;;;21.20;18.83;;;;;;;15.30;66.48;100863.50;6280461;28;20239;-52
2021/05/12 08:48:37;;;;;;;25.07;21.00;;;;;;;15.16;66.82;100861.25;6281998;28;20219;-51
2021/05/12 08:51:58;;;;;;;24.10;18.43;;;;;;;15.38;66.79;100855.41;6255841;28;20228;-50
2021/05/12 08:55:20;;;;;;;28.57;22.57;;;;;;;15.36;66.62;100852.81;6257417;28;20216;-49
2021/05/12 08:58:41;;;;;;;21.87;19.53;;;;;;;15.45;67.54;100851.69;6255751;28;20243;-48
2021/05/12 09:02:05;;;;;;;21.67;19.63;;;;;;;15.48;66.25;100847.22;6264962;28;20239;-49
2021/05/12 09:05:25;;;;;;;25.77;21.43;;;;;;;15.56;66.17;100844.38;6257574;28;20307;-49
2021/05/12 09:08:47;;;;;;;20.93;15.67;;;;;;;15.53;65.63;100849.72;6259378;28;20220;-49
2021/05/12 09:12:12;;;;;;;21.93;15.63;;;;;;;16.06;64.40;100855.13;6263429;28;20239;-52
2021/05/12 09:15:34;;;;;;;14.50;10.50;;;;;;;16.38;62.51;100844.50;6253410;28;20247;-52
2021/05/12 09:19:05;;;;;;;15.10;8.30;;;;;;;16.61;61.87;100844.59;6278898;28;20238;-51
2021/05/12 09:22:26;;;;;;;12.87;8.17;;;;;;;16.23;62.90;100833.59;6279862;28;20216;-52
2021/05/12 09:25:57;;;;;;;8.87;6.20;;;;;;;16.23;61.99;100836.22;6282864;28;20574;-47
2021/05/12 09:29:26;;;;;;;9.83;7.03;;;;;;;16.06;61.34;100851.66;6294482;28;20230;-51
2021/05/12 09:32:46;;;;;;;7.27;5.43;;;;;;;16.02;62.34;100852.66;6275506;28;20230;-53
2021/05/12 09:36:09;;;;;;;7.43;4.80;;;;;;;15.94;62.03;100848.50;6260575;28;20224;-52
2021/05/12 09:39:30;;;;;;;7.33;4.17;;;;;;;15.89;61.46;100847.78;6255244;28;20241;-50
2021/05/12 09:42:58;;;;;;;7.57;5.07;;;;;;;16.01;61.37;100845.69;6255744;28;20270;-50
2021/05/12 09:46:23;;;;;;;10.17;5.33;;;;;;;16.14;61.95;100847.03;6257651;28;20223;-49
2021/05/12 09:49:45;;;;;;;7.63;4.83;;;;;;;16.00;62.39;100859.75;6258636;28;20881;-47
2021/05/12 09:53:12;;;;;;;7.40;5.40;;;;;;;15.84;62.27;100854.94;6258833;28;20264;-49
2021/05/12 09:56:38;;;;;;;6.87;5.83;;;;;;;16.20;61.48;100862.59;6254033;28;20224;-50
2021/05/12 09:59:58;;;;;;;12.27;5.87;;;;;;;16.26;60.03;100862.38;6257014;28;20617;-48
2021/05/12 10:03:24;;;;;;;6.17;4.60;;;;;;;16.26;59.74;100867.63;6247424;28;20798;-50
2021/05/12 10:06:44;;;;;;;7.37;4.53;;;;;;;16.17;60.23;100867.06;6245462;28;20322;-53
2021/05/12 10:10:07;;;;;;;5.93;3.67;;;;;;;16.18;59.89;100869.66;6259394;28;20779;-51
2021/05/12 10:13:28;;;;;;;7.20;4.00;;;;;;;16.48;59.42;100866.97;6260740;28;20274;-53
2021/05/12 10:16:49;;;;;;;8.10;5.77;;;;;;;16.69;58.95;100866.25;6255336;28;20235;-46
2021/05/12 10:20:11;;;;;;;5.97;4.17;;;;;;;15.63;61.82;100876.56;6251004;28;20232;-49
2021/05/12 10:23:32;;;;;;;9.40;5.43;;;;;;;15.91;61.08;100872.22;6254154;28;20224;-51
2021/05/12 10:26:54;;;;;;;8.10;4.37;;;;;;;16.23;60.57;100878.25;6261696;28;20232;-49
2021/05/12 10:30:16;;;;;;;6.63;4.50;;;;;;;16.42;60.65;100881.16;6255347;28;20236;-49
2021/05/12 10:33:46;;;;;;;5.03;3.57;;;;;;;16.48;58.98;100891.47;6255146;28;20228;-48
2021/05/12 10:37:19;;;;;;;3.63;3.33;;;;;;;16.90;57.74;100890.13;6239453;28;20235;-51
2021/05/12 10:40:41;;;;;;;5.00;3.53;;;;;;;16.44;58.62;100881.97;6252050;28;20231;-51
2021/05/12 10:44:10;;;;;;;8.23;4.00;;;;;;;16.22;60.59;100887.03;6244110;28;20315;-46
2021/05/12 10:47:36;;;;;;;4.47;3.00;;;;;;;15.75;61.91;100882.31;6256999;28;20231;-54
2021/05/12 10:50:59;;;;;;;3.47;3.10;;;;;;;16.48;59.17;100877.50;6254309;28;20562;-50
2021/05/12 10:54:40;;;;;;;3.47;2.50;;;;;;;15.37;62.51;100875.53;6252815;28;20259;-50
2021/05/12 10:58:15;;;;;;;4.93;3.03;;;;;;;15.81;61.87;100878.66;6266559;28;20228;-51
2021/05/12 11:01:52;;;;;;;4.87;2.80;;;;;;;16.11;59.87;100883.88;6279736;28;20330;-53
2021/05/12 11:05:13;;;;;;;4.43;3.00;;;;;;;15.93;60.57;100878.28;6262075;28;20231;-48
2021/05/12 11:08:34;;;;;;;4.07;2.87;;;;;;;16.65;59.48;100896.19;6279650;28;20235;-50
2021/05/12 11:11:57;;;;;;;3.13;2.83;;;;;;;17.43;58.00;100890.00;6285594;28;20235;-49
2021/05/12 11:15:18;;;;;;;5.83;3.00;;;;;;;16.82;58.66;100892.16;6258993;28;20239;-47
2021/05/12 11:18:51;;;;;;;3.63;2.23;;;;;;;16.94;58.32;100897.00;6256568;28;20220;-44
2021/05/12 11:22:37;;;;;;;4.17;3.17;;;;;;;17.00;57.21;100888.91;6237349;28;20498;-50
2021/05/12 11:26:23;;;;;;;4.50;4.10;;;;;;;16.44;58.95;100894.25;6237672;28;20239;-46
2021/05/12 11:33:29;;;;;;;4.60;4.20;;;;;;;16.57;58.69;100887.69;6269385;28;20223;-52
2021/05/12 11:37:03;;;;;;;6.27;4.30;;;;;;;17.08;57.84;100886.88;6273883;28;20227;-48
2021/05/12 11:40:29;;;;;;;10.33;7.47;;;;;;;16.83;58.12;100889.47;6277624;28;20530;-49
2021/05/12 11:43:52;;;;;;;6.00;5.50;;;;;;;16.99;58.10;100892.44;6253749;28;20652;-49
2021/05/12 11:47:13;;;;;;;8.27;6.33;;;;;;;16.76;58.55;100894.97;6257816;28;20239;-54
2021/05/12 11:50:35;;;;;;;10.13;7.60;;;;;;;16.63;59.02;100897.97;6256589;28;20227;-50
2021/05/12 11:53:58;;;;;;;7.93;6.40;;;;;;;16.37;60.26;100883.06;6251271;28;20657;-48
2021/05/12 11:57:18;;;;;;;6.83;5.23;;;;;;;17.11;58.71;100889.38;6270395;28;20240;-50
2021/05/12 12:00:41;;;;;;;9.50;6.20;;;;;;;17.66;56.33;100886.53;6254404;28;20232;-50
2021/05/12 12:07:41;;;;;;;7.47;6.30;;;;;;;17.80;55.35;100893.91;6254721;28;20228;-54
2021/05/12 12:11:08;;;;;;;7.33;5.30;;;;;;;18.35;54.16;100890.06;6256226;28;20566;-51
2021/05/12 12:14:29;;;;;;;8.53;4.53;;;;;;;18.54;51.60;100891.03;6259375;28;20231;-51
2021/05/12 12:17:52;;;;;;;9.77;4.83;;;;;;;18.40;51.50;100893.38;6255030;28;20505;-53
2021/05/12 12:21:13;;;;;;;9.23;4.47;;;;;;;17.92;52.68;100902.31;6251356;28;20228;-54
2021/05/12 12:24:34;;;;;;;10.90;4.43;;;;;;;18.14;53.05;100895.25;6266829;28;20235;-48
2021/05/12 12:27:56;;;;;;;8.10;4.53;;;;;;;18.25;51.66;100886.94;6274948;28;20251;-50
2021/05/12 12:31:22;;;;;;;6.77;4.50;;;;;;;18.09;51.45;100887.56;6282754;28;25661;-49
2021/05/12 12:34:44;;;;;;;6.30;3.37;;;;;;;18.08;51.22;100895.50;6263084;28;20220;-51
2021/05/12 12:38:12;;;;;;;6.90;3.50;;;;;;;18.34;51.29;100902.41;6256656;28;20232;-53
2021/05/12 12:41:32;;;;;;;5.33;3.20;;;;;;;18.95;49.54;100891.09;6256040;28;20255;-52
2021/05/12 12:44:54;;;;;;;10.93;4.23;;;;;;;19.10;48.63;100896.66;6256574;28;20318;-48
2021/05/12 12:48:24;;;;;;;5.68;3.10;;;;;;;19.32;48.26;100899.22;6255191;28;20235;-51
2021/05/12 12:51:45;;;;;;;8.00;4.55;;;;;;;19.31;46.72;100892.19;6260726;28;20604;-50
2021/05/12 12:55:08;;;;;;;6.55;2.90;;;;;;;19.04;47.86;100896.00;6258742;28;20232;-51
2021/05/12 12:58:29;;;;;;;5.22;2.90;;;;;;;18.39;48.74;100892.50;6250199;28;20223;-51
2021/05/12 13:01:50;;;;;;;6.90;3.00;;;;;;;18.83;48.08;100899.56;6262985;28;20228;-51
2021/05/12 13:05:16;;;;;;;6.55;2.95;;;;;;;19.01;46.24;100895.25;6253076;28;20228;-48
2021/05/12 13:08:39;;;;;;;6.83;3.17;;;;;;;19.36;46.51;100901.63;6253996;28;20240;-51
2021/05/12 13:11:59;;;;;;;4.13;2.50;;;;;;;18.95;47.11;100904.31;6246433;28;20767;-48
2021/05/12 13:15:21;;;;;;;4.82;2.80;;;;;;;18.49;48.42;100904.41;6257618;28;20663;-51
2021/05/12 13:18:49;;;;;;;5.93;2.47;;;;;;;19.02;47.00;100913.69;6257531;28;20212;-49
2021/05/12 13:22:11;;;;;;;7.57;3.10;;;;;;;18.96;47.16;100913.06;6251338;28;20226;-51
2021/05/12 13:25:32;;;;;;;2.75;2.47;;;;;;;18.56;48.35;100905.00;6256736;28;20500;-50
2021/05/12 13:28:53;;;;;;;6.80;3.13;;;;;;;18.21;49.13;100915.19;6278252;28;20235;-53
2021/05/12 13:32:13;;;;;;;5.22;2.50;;;;;;;18.03;50.35;100905.34;6277903;28;20318;-53
2021/05/12 13:35:35;;;;;;;3.85;2.40;;;;;;;17.81;50.32;100911.41;6252578;28;20343;-47
2021/05/12 13:38:56;;;;;;;5.10;2.50;;;;;;;17.74;51.68;100919.59;6260303;28;20510;-49
2021/05/12 13:42:16;;;;;;;6.13;2.47;;;;;;;17.56;50.98;100915.88;6253741;28;20232;-53
2021/05/12 13:45:36;;;;;;;4.50;2.70;;;;;;;17.45;51.20;100913.66;6246954;28;20244;-47
2021/05/12 13:48:57;;;;;;;12.93;4.27;;;;;;;17.54;51.78;100913.31;6260709;28;20689;-52
2021/05/12 13:52:25;;;;;;;10.97;6.17;;;;;;;17.66;51.82;100915.50;6254467;28;20233;-50
2021/05/12 13:55:55;;;;;;;6.27;4.07;;;;;;;17.59;51.66;100915.78;6271200;28;20595;-46
2021/05/12 14:02:55;;;;;;;10.33;3.73;;;;;;;17.77;50.88;100909.81;6253412;28;20236;-51
2021/05/12 14:06:21;;;;;;;6.43;3.40;;;;;;;17.67;52.22;100908.44;6253736;28;20330;-46
2021/05/12 14:09:46;;;;;;;6.97;3.73;;;;;;;17.36;52.33;100917.47;6245758;28;20224;-45
2021/05/12 14:13:14;;;;;;;7.10;3.57;;;;;;;17.38;52.68;100910.38;6253391;28;20228;-52
2021/05/12 14:16:52;;;;;;;6.07;3.87;;;;;;;17.32;53.01;100919.34;6247151;28;20231;-46
2021/05/12 14:20:13;;;;;;;8.30;4.70;;;;;;;17.21;53.64;100928.53;6252641;28;20227;-50
2021/05/12 14:23:34;;;;;;;11.87;4.47;;;;;;;17.21;53.84;100931.16;6246321;28;20255;-50
2021/05/12 14:26:57;;;;;;;9.73;5.60;;;;;;;17.78;52.54;100935.25;6239660;28;20322;-46
2021/05/12 14:30:18;;;;;;;21.40;4.90;;;;;;;17.67;53.03;100945.31;6252901;28;20228;-48
2021/05/12 14:33:39;;;;;;;4.27;3.23;;;;;;;17.62;52.83;100936.72;6285497;28;20314;-52
2021/05/12 14:36:59;;;;;;;7.93;4.53;;;;;;;17.37;53.87;100948.16;6274822;28;20528;-46
2021/05/12 14:40:19;;;;;;;9.23;4.73;;;;;;;17.70;52.85;100934.69;6252052;28;20228;-52
2021/05/12 14:43:41;;;;;;;10.67;4.40;;;;;;;17.62;52.96;100939.34;6273294;28;20231;-50
2021/05/12 14:47:01;;;;;;;4.40;3.50;;;;;;;17.35;52.81;100939.44;6250956;28;20319;-50
2021/05/12 14:50:26;;;;;;;6.30;4.03;;;;;;;17.15;54.08;100944.53;6257217;28;20321;-48
2021/05/12 14:53:51;;;;;;;6.67;3.67;;;;;;;17.38;53.22;100949.00;6262719;28;20779;-46
2021/05/12 14:57:24;;;;;;;5.53;4.23;;;;;;;16.95;54.49;100951.34;6262115;28;20551;-48
2021/05/12 15:01:06;;;;;;;7.70;4.97;;;;;;;16.69;55.59;100946.88;6253042;28;20355;-49
2021/05/12 15:04:39;;;;;;;7.17;4.67;;;;;;;16.78;55.48;100954.47;6255930;28;20236;-52
2021/05/12 15:08:03;;;;;;;8.07;4.73;;;;;;;16.72;55.37;100957.31;6259203;28;20227;-50
2021/05/12 15:11:24;;;;;;;7.07;4.13;;;;;;;16.43;56.18;100963.50;6262324;28;20310;-49
2021/05/12 15:14:45;;;;;;;8.43;4.50;;;;;;;16.78;55.27;100964.16;6260871;28;20227;-51
2021/05/12 15:18:07;;;;;;;7.53;5.50;;;;;;;16.77;55.40;100960.66;6260665;28;20243;-49
2021/05/12 15:21:27;;;;;;;7.73;4.07;;;;;;;16.76;56.37;100965.97;6259582;28;20644;-49
2021/05/12 15:24:48;;;;;;;5.27;4.73;;;;;;;16.70;56.10;100970.50;6261430;28;20275;-51
2021/05/12 15:28:09;;;;;;;4.73;4.20;;;;;;;16.81;55.09;100975.44;6240632;28;20557;-50
2021/05/12 15:31:29;;;;;;;6.23;4.53;;;;;;;16.96;54.82;100974.09;6259359;28;20231;-49
2021/05/12 15:34:52;;;;;;;8.30;4.37;;;;;;;16.31;56.27;100975.25;6276316;28;20244;-47
2021/05/12 15:38:13;;;;;;;6.20;4.23;;;;;;;16.63;55.81;100971.59;6264243;28;20303;-52
2021/05/12 15:41:33;;;;;;;8.47;5.03;;;;;;;16.77;55.09;100972.94;6256211;28;20235;-49
2021/05/12 15:44:56;;;;;;;5.33;3.50;;;;;;;16.56;55.60;100962.22;6260649;28;20276;-50
2021/05/12 15:48:17;;;;;;;3.60;3.33;;;;;;;16.59;55.40;100963.88;6256081;28;20636;-50
2021/05/12 15:51:38;;;;;;;4.77;3.17;;;;;;;16.97;54.67;100960.03;6258440;28;20231;-47